CYIO

Pond Inlet Airport

Pond Inlet, Canada
METAR CYIO 092200Z AUTO 20007KT 7SM CLR M29/M31 A3030 RMK SLP273
Observed Flight Rules
Dec-9 @ 22:00 UTC (14 minutes ago) Visual Flight Rules
Wind Visibility Clouds
200° at 7 knots 7 miles
  • Clear skies
Temperatures Readings
Current -29°C / -20°F
Dewpoint -31°C / -24°F
Humidity 83%
Altimeter 30.3" Hg
Pressure 1027.3 hPa
Elevation 57
METAR CYIO 092200Z AUTO 20007KT 7SM CLR M29/M31 A3030 RMK SLP273
Observed Flight Rules
Dec-9 @ 22:00 UTC
(14 minutes ago)
VFR
Wind Visibility
200° at 7 knots 7 miles
Clouds
  • Clear skies
Temperature Dewpoint
-29°C / -20°F -31°C / -24°F
Humidity Altimeter Pressure
83% 30.3" Hg 1027.3 hPa